createdAt,value
2023-02-18T00:01:32.266Z,97533.00
2023-02-18T00:04:02.192Z,97530.00
2023-02-18T00:06:35.033Z,97537.00
2023-02-18T00:09:07.886Z,97536.00
2023-02-18T00:11:36.477Z,97539.00
2023-02-18T00:14:11.419Z,97542.00
2023-02-18T00:16:38.218Z,97533.00
2023-02-18T00:19:13.167Z,97533.00
2023-02-18T00:21:40.236Z,97539.00
2023-02-18T00:24:08.428Z,97540.00
2023-02-18T00:26:36.174Z,97541.00
2023-02-18T00:29:03.702Z,97532.00
2023-02-18T00:31:36.742Z,97533.00
2023-02-18T00:34:05.055Z,97534.00
2023-02-18T00:36:33.714Z,97529.00
2023-02-18T00:39:04.023Z,97534.00
2023-02-18T00:41:32.599Z,97534.00
2023-02-18T00:43:59.544Z,97531.00
2023-02-18T00:46:27.195Z,97564.00
2023-02-18T00:48:54.415Z,97527.00
2023-02-18T00:51:21.924Z,97533.00
2023-02-18T00:53:50.140Z,97522.00
2023-02-18T00:56:17.159Z,97528.00
2023-02-18T00:58:44.077Z,97531.00
2023-02-18T01:01:12.046Z,97527.00
2023-02-18T01:03:41.694Z,97533.00
2023-02-18T01:06:09.760Z,97533.00
2023-02-18T01:08:38.611Z,97531.00
2023-02-18T01:11:06.560Z,97542.00
2023-02-18T01:13:33.807Z,97519.00
2023-02-18T01:16:00.576Z,97532.00
2023-02-18T01:18:27.797Z,97533.00
2023-02-18T01:20:54.864Z,97543.00
2023-02-18T01:23:23.536Z,97531.00
2023-02-18T01:25:50.936Z,97527.00
2023-02-18T01:28:19.041Z,97533.00
2023-02-18T01:30:45.861Z,97526.00
2023-02-18T01:33:12.809Z,97524.00
2023-02-18T01:35:41.066Z,97547.00
2023-02-18T01:38:08.646Z,97529.00
2023-02-18T01:40:36.914Z,97526.00
2023-02-18T01:43:03.919Z,97526.00
2023-02-18T01:45:39.613Z,97525.00
2023-02-18T01:48:17.556Z,97525.00
2023-02-18T01:50:54.433Z,97522.00
2023-02-18T01:53:35.313Z,97514.00
2023-02-18T01:56:05.734Z,97528.00
2023-02-18T01:58:33.423Z,97519.00
2023-02-18T02:01:00.325Z,97515.00
2023-02-18T02:03:27.196Z,97513.00
2023-02-18T02:05:53.968Z,97501.00
2023-02-18T02:08:20.763Z,97499.00
2023-02-18T02:11:24.721Z,97510.00
2023-02-18T02:14:19.152Z,97516.00
2023-02-18T02:16:54.579Z,97519.00
2023-02-18T02:19:55.400Z,97517.00
2023-02-18T02:22:34.305Z,97526.00
2023-02-18T02:25:35.911Z,97517.00
2023-02-18T02:28:36.763Z,97524.00
2023-02-18T02:31:28.040Z,97519.00
2023-02-18T02:34:30.495Z,97523.00
2023-02-18T02:37:31.388Z,97520.00
2023-02-18T02:40:11.811Z,97513.00
2023-02-18T02:43:10.091Z,97502.00
2023-02-18T02:46:03.298Z,97509.00
2023-02-18T02:48:53.708Z,97502.00
2023-02-18T02:51:27.298Z,97502.00
2023-02-18T02:53:54.310Z,97497.00
2023-02-18T02:56:25.602Z,97488.00
2023-02-18T02:59:06.629Z,97486.00
2023-02-18T03:01:51.934Z,97501.00
2023-02-18T03:04:50.696Z,97492.00
2023-02-18T03:07:40.858Z,97490.00
2023-02-18T03:10:29.395Z,97489.00
2023-02-18T03:13:47.134Z,97481.00
2023-02-18T03:16:33.332Z,97485.00
2023-02-18T03:19:20.654Z,97493.00
2023-02-18T03:22:00.718Z,97487.00
2023-02-18T03:24:32.996Z,97489.00
2023-02-18T03:27:10.208Z,97490.00
2023-02-18T03:29:38.541Z,97491.00
2023-02-18T03:32:10.044Z,97483.00
2023-02-18T03:34:43.693Z,97491.00
2023-02-18T03:37:11.836Z,97483.00
2023-02-18T03:39:42.517Z,97475.00
2023-02-18T03:42:09.358Z,97476.00
2023-02-18T03:44:36.128Z,97475.00
2023-02-18T03:47:03.035Z,97472.00
2023-02-18T03:49:29.795Z,97489.00
2023-02-18T03:51:56.610Z,97475.00
2023-02-18T03:54:23.389Z,97473.00
2023-02-18T03:56:50.178Z,97469.00
2023-02-18T03:59:17.006Z,97471.00
2023-02-18T04:01:43.814Z,97472.00
2023-02-18T04:04:10.601Z,97484.00
2023-02-18T04:06:37.601Z,97482.00
2023-02-18T04:09:08.718Z,97484.00
2023-02-18T04:11:40.466Z,97488.00
2023-02-18T04:14:08.456Z,97489.00
2023-02-18T04:16:35.284Z,97494.00
2023-02-18T04:19:02.119Z,97488.00
2023-02-18T04:21:28.866Z,97489.00
2023-02-18T04:23:55.670Z,97498.00
2023-02-18T04:26:22.704Z,97510.00
2023-02-18T04:28:49.535Z,97494.00
2023-02-18T04:31:16.490Z,97495.00
2023-02-18T04:33:43.381Z,97493.00
2023-02-18T04:36:10.482Z,97495.00
2023-02-18T04:38:37.419Z,97493.00
2023-02-18T04:41:04.572Z,97489.00
2023-02-18T04:43:31.399Z,97494.00
2023-02-18T04:45:58.191Z,97483.00
2023-02-18T04:48:25.037Z,97477.00
2023-02-18T04:50:51.861Z,97471.00
2023-02-18T04:53:18.668Z,97480.00
2023-02-18T04:55:51.649Z,97473.00
2023-02-18T04:58:19.634Z,97478.00
2023-02-18T05:00:46.917Z,97482.00
2023-02-18T05:03:14.361Z,97486.00
2023-02-18T05:05:41.981Z,97480.00
2023-02-18T05:08:09.102Z,97477.00
2023-02-18T05:10:37.779Z,97483.00
2023-02-18T05:13:04.686Z,97484.00
2023-02-18T05:15:31.510Z,97479.00
2023-02-18T05:17:58.282Z,97481.00
2023-02-18T05:20:25.085Z,97479.00
2023-02-18T05:22:51.887Z,97470.00
2023-02-18T05:25:18.828Z,97473.00
2023-02-18T05:27:45.650Z,97473.00
2023-02-18T05:30:12.972Z,97470.00
2023-02-18T05:32:39.786Z,97485.00
2023-02-18T05:35:07.421Z,97471.00
2023-02-18T05:37:34.216Z,97484.00
2023-02-18T05:40:01.365Z,97489.00
2023-02-18T05:42:28.129Z,97483.00
2023-02-18T05:44:54.928Z,97481.00
2023-02-18T05:47:21.677Z,97489.00
2023-02-18T05:49:48.452Z,97486.00
2023-02-18T05:52:15.294Z,97481.00
2023-02-18T05:54:42.257Z,97490.00
2023-02-18T05:57:09.089Z,97492.00
2023-02-18T05:59:35.881Z,97485.00
2023-02-18T06:02:02.652Z,97494.00
2023-02-18T06:04:29.470Z,97495.00
2023-02-18T06:06:56.396Z,97494.00
2023-02-18T06:09:23.288Z,97484.00
2023-02-18T06:11:51.288Z,97490.00
2023-02-18T06:14:18.390Z,97495.00
2023-02-18T06:16:45.242Z,97488.00
2023-02-18T06:19:12.030Z,97489.00
2023-02-18T06:21:38.819Z,97481.00
2023-02-18T06:24:05.998Z,97490.00
2023-02-18T06:26:34.257Z,97492.00
2023-02-18T06:29:01.099Z,97484.00
2023-02-18T06:31:28.039Z,97482.00
2023-02-18T06:33:54.885Z,97481.00
2023-02-18T06:36:21.896Z,97485.00
2023-02-18T06:38:48.684Z,97486.00
2023-02-18T06:41:16.000Z,97479.00
2023-02-18T06:43:42.853Z,97479.00
2023-02-18T06:46:10.049Z,97483.00
2023-02-18T06:48:38.146Z,97482.00
2023-02-18T06:51:06.403Z,97471.00
2023-02-18T06:53:33.321Z,97485.00
2023-02-18T06:56:00.125Z,97488.00
2023-02-18T06:58:27.123Z,97488.00
2023-02-18T07:00:54.081Z,97486.00
2023-02-18T07:03:20.912Z,97483.00
2023-02-18T07:05:48.018Z,97483.00
2023-02-18T07:08:14.809Z,97482.00
2023-02-18T07:10:41.732Z,97473.00
2023-02-18T07:13:08.590Z,97475.00
2023-02-18T07:15:35.579Z,97478.00
2023-02-18T07:18:02.486Z,97475.00
2023-02-18T07:20:29.413Z,97473.00
2023-02-18T07:22:56.315Z,97467.00
2023-02-18T07:25:23.525Z,97464.00
2023-02-18T07:27:51.124Z,97463.00
2023-02-18T07:30:19.744Z,97454.00
2023-02-18T07:32:46.810Z,97468.00
2023-02-18T07:35:15.569Z,97451.00
2023-02-18T07:37:50.307Z,97460.00
2023-02-18T07:40:20.646Z,97463.00
2023-02-18T07:42:47.977Z,97461.00
2023-02-18T07:45:14.944Z,97459.00
2023-02-18T07:47:42.495Z,97467.00
2023-02-18T07:50:10.577Z,97451.00
2023-02-18T07:52:37.617Z,97443.00
2023-02-18T07:55:04.816Z,97440.00
2023-02-18T07:57:31.609Z,97439.00
2023-02-18T07:59:58.436Z,97439.00
2023-02-18T08:02:25.486Z,97450.00
2023-02-18T08:04:52.537Z,97433.00
2023-02-18T08:07:22.018Z,97439.00
2023-02-18T08:09:50.542Z,97446.00
2023-02-18T08:12:17.609Z,97445.00
2023-02-18T08:14:44.447Z,97453.00
2023-02-18T08:17:11.272Z,97448.00
2023-02-18T08:19:38.083Z,97449.00
2023-02-18T08:22:04.831Z,97449.00
2023-02-18T08:24:31.604Z,97446.00
2023-02-18T08:27:01.245Z,97446.00
2023-02-18T08:29:29.051Z,97447.00
2023-02-18T08:31:57.913Z,97446.00
2023-02-18T08:34:25.077Z,97452.00
2023-02-18T08:36:51.863Z,97447.00
2023-02-18T08:39:18.641Z,97438.00
2023-02-18T08:41:45.384Z,97444.00
2023-02-18T08:44:12.238Z,97427.00
2023-02-18T08:46:39.197Z,97430.00
2023-02-18T08:49:06.653Z,97418.00
2023-02-18T08:51:34.035Z,97421.00
2023-02-18T08:54:00.850Z,97425.00
2023-02-18T08:56:27.784Z,97413.00
2023-02-18T08:58:54.661Z,97423.00
2023-02-18T09:01:21.538Z,97423.00
2023-02-18T09:03:48.787Z,97425.00
2023-02-18T09:06:16.053Z,97427.00
2023-02-18T09:08:42.920Z,97406.00
2023-02-18T09:11:11.667Z,97419.00
2023-02-18T09:13:39.286Z,97407.00
2023-02-18T09:16:18.297Z,97416.00
2023-02-18T09:18:47.527Z,97410.00
2023-02-18T09:21:16.757Z,97413.00
2023-02-18T09:23:43.689Z,97404.00
2023-02-18T09:26:14.952Z,97396.00
2023-02-18T09:28:41.797Z,97411.00
2023-02-18T09:31:19.198Z,97402.00
2023-02-18T09:33:54.234Z,97401.00
2023-02-18T09:36:21.085Z,97400.00
2023-02-18T09:38:49.055Z,97405.00
2023-02-18T09:41:28.042Z,97390.00
2023-02-18T09:44:01.781Z,97381.00
2023-02-18T09:46:39.561Z,97380.00
2023-02-18T09:49:20.168Z,97372.00
2023-02-18T09:51:47.525Z,97372.00
2023-02-18T09:54:18.217Z,97371.00
2023-02-18T09:56:46.238Z,97376.00
2023-02-18T09:59:21.167Z,97378.00
2023-02-18T10:01:54.832Z,97374.00
2023-02-18T10:04:33.850Z,97363.00
2023-02-18T10:07:03.703Z,97370.00
2023-02-18T10:09:36.620Z,97365.00
2023-02-18T10:12:19.199Z,97370.00
2023-02-18T10:14:55.671Z,97367.00
2023-02-18T10:17:26.883Z,97370.00
2023-02-18T10:19:56.279Z,97369.00
2023-02-18T10:22:25.638Z,97371.00
2023-02-18T10:25:06.747Z,97371.00
2023-02-18T10:27:37.691Z,97347.00
2023-02-18T10:30:31.089Z,97352.00
2023-02-18T10:33:29.877Z,97352.00
2023-02-18T10:36:22.100Z,97344.00
2023-02-18T10:39:27.751Z,97341.00
2023-02-18T10:42:11.679Z,97345.00
2023-02-18T10:45:14.862Z,97326.00
2023-02-18T10:48:34.169Z,97324.00
2023-02-18T10:51:19.717Z,97310.00
2023-02-18T10:53:50.021Z,97308.00
2023-02-18T10:56:40.270Z,97303.00
2023-02-18T10:59:12.938Z,97297.00
2023-02-18T11:01:41.512Z,97287.00
2023-02-18T11:04:26.710Z,97281.00
2023-02-18T11:06:54.236Z,97266.00
2023-02-18T11:09:34.517Z,97289.00
2023-02-18T11:12:08.653Z,97262.00
2023-02-18T11:14:50.250Z,97265.00
2023-02-18T11:17:28.077Z,97266.00
2023-02-18T11:20:01.847Z,97263.00
2023-02-18T11:22:39.724Z,97258.00
2023-02-18T11:25:25.820Z,97238.00
2023-02-18T11:28:06.107Z,97234.00
2023-02-18T11:30:47.428Z,97234.00
2023-02-18T11:33:27.356Z,97218.00
2023-02-18T11:35:57.880Z,97231.00
2023-02-18T11:38:38.025Z,97214.00
2023-02-18T11:41:12.286Z,97207.00
2023-02-18T11:43:43.983Z,97208.00
2023-02-18T11:46:21.370Z,97188.00
2023-02-18T11:48:49.749Z,97184.00
2023-02-18T11:51:23.892Z,97181.00
2023-02-18T11:54:10.413Z,97179.00
2023-02-18T11:56:38.678Z,97178.00
2023-02-18T11:59:06.304Z,97170.00
2023-02-18T12:01:48.918Z,97173.00
2023-02-18T12:04:21.812Z,97165.00
2023-02-18T12:06:48.500Z,97167.00
2023-02-18T12:09:57.788Z,97159.00
2023-02-18T12:12:37.509Z,97157.00
2023-02-18T12:15:04.830Z,97154.00
2023-02-18T12:18:16.577Z,97151.00
2023-02-18T12:20:56.201Z,97164.00
2023-02-18T12:23:47.108Z,97145.00
2023-02-18T12:27:18.435Z,97161.00
2023-02-18T12:29:49.201Z,97136.00
2023-02-18T12:32:32.117Z,97140.00
2023-02-18T12:35:08.921Z,97139.00
2023-02-18T12:38:17.300Z,97136.00
2023-02-18T12:41:19.225Z,97150.00
2023-02-18T12:44:14.708Z,97147.00
2023-02-18T12:47:20.049Z,97154.00
2023-02-18T12:50:02.856Z,97123.00
2023-02-18T12:52:44.735Z,97133.00
2023-02-18T12:55:46.960Z,97127.00
2023-02-18T12:58:42.287Z,97126.00
2023-02-18T13:01:39.701Z,97124.00
2023-02-18T13:04:26.078Z,97133.00
2023-02-18T13:07:18.924Z,97136.00
2023-02-18T13:09:55.404Z,97149.00
2023-02-18T13:12:44.797Z,97127.00
2023-02-18T13:15:39.510Z,97120.00
2023-02-18T13:18:16.691Z,97110.00
2023-02-18T13:20:57.610Z,97110.00
2023-02-18T13:24:00.219Z,97128.00
2023-02-18T13:26:31.780Z,97110.00
2023-02-18T13:29:28.714Z,97103.00
2023-02-18T13:32:40.134Z,97109.00
2023-02-18T13:35:34.081Z,97116.00
2023-02-18T13:38:46.644Z,97114.00
2023-02-18T13:41:14.897Z,97100.00
2023-02-18T13:43:41.894Z,97090.00
2023-02-18T13:46:11.475Z,97114.00
2023-02-18T13:48:50.857Z,97094.00
2023-02-18T13:51:34.152Z,97086.00
2023-02-18T13:54:18.265Z,97083.00
2023-02-18T13:57:04.408Z,97079.00
2023-02-18T13:59:49.887Z,97090.00
2023-02-18T14:02:19.804Z,97091.00
2023-02-18T14:04:47.552Z,97087.00
2023-02-18T14:07:33.586Z,97092.00
2023-02-18T14:10:17.269Z,97074.00
2023-02-18T14:13:20.619Z,97101.00
2023-02-18T14:16:01.170Z,97098.00
2023-02-18T14:18:39.555Z,97094.00
2023-02-18T14:21:12.881Z,97095.00
2023-02-18T14:23:44.524Z,97101.00
2023-02-18T14:26:14.452Z,97075.00
2023-02-18T14:28:57.299Z,97070.00
2023-02-18T14:31:40.703Z,97072.00
2023-02-18T14:34:41.735Z,97091.00
2023-02-18T14:37:45.196Z,97079.00
2023-02-18T14:40:51.976Z,97083.00
2023-02-18T14:43:30.893Z,97077.00
2023-02-18T14:46:09.880Z,97078.00
2023-02-18T14:48:51.737Z,97082.00
2023-02-18T14:51:25.407Z,97074.00
2023-02-18T14:53:52.984Z,97085.00
2023-02-18T14:56:23.102Z,97093.00
2023-02-18T14:58:58.409Z,97088.00
2023-02-18T15:01:31.056Z,97100.00
2023-02-18T15:03:59.907Z,97104.00
2023-02-18T15:06:36.365Z,97102.00
2023-02-18T15:09:22.381Z,97119.00
2023-02-18T15:12:06.902Z,97120.00
2023-02-18T15:14:40.436Z,97125.00
2023-02-18T15:17:15.594Z,97122.00
2023-02-18T15:19:50.742Z,97130.00
2023-02-18T15:22:25.476Z,97128.00
2023-02-18T15:24:56.793Z,97136.00
2023-02-18T15:27:32.470Z,97142.00
2023-02-18T15:30:22.077Z,97132.00
2023-02-18T15:32:56.397Z,97137.00
2023-02-18T15:35:32.998Z,97128.00
2023-02-18T15:38:03.145Z,97138.00
2023-02-18T15:40:36.079Z,97129.00
2023-02-18T15:43:06.244Z,97156.00
2023-02-18T15:45:41.899Z,97152.00
2023-02-18T15:48:45.877Z,97142.00
2023-02-18T15:51:18.673Z,97146.00
2023-02-18T15:53:47.433Z,97122.00
2023-02-18T15:56:30.543Z,97134.00
2023-02-18T15:59:20.460Z,97137.00
2023-02-18T16:01:59.093Z,97147.00
2023-02-18T16:04:33.295Z,97149.00
2023-02-18T16:07:26.126Z,97143.00
2023-02-18T16:10:22.590Z,97147.00
2023-02-18T16:12:55.503Z,97145.00
2023-02-18T16:15:29.635Z,97152.00
2023-02-18T16:17:59.709Z,97161.00
2023-02-18T16:20:36.837Z,97163.00
2023-02-18T16:23:14.601Z,97171.00
2023-02-18T16:25:50.626Z,97160.00
2023-02-18T16:28:27.969Z,97169.00
2023-02-18T16:30:55.673Z,97181.00
2023-02-18T16:33:22.587Z,97178.00
2023-02-18T16:35:51.006Z,97181.00
2023-02-18T16:38:25.208Z,97171.00
2023-02-18T16:40:55.111Z,97186.00
2023-02-18T16:43:27.080Z,97202.00
2023-02-18T16:45:58.020Z,97186.00
2023-02-18T16:48:31.621Z,97210.00
2023-02-18T16:51:06.306Z,97212.00
2023-02-18T16:53:33.851Z,97202.00
2023-02-18T16:56:02.790Z,97221.00
2023-02-18T16:58:30.393Z,97214.00
2023-02-18T17:00:57.993Z,97215.00
2023-02-18T17:03:25.607Z,97217.00
2023-02-18T17:05:52.542Z,97232.00
2023-02-18T17:08:24.594Z,97233.00
2023-02-18T17:11:03.145Z,97221.00
2023-02-18T17:13:31.527Z,97204.00
2023-02-18T17:15:59.986Z,97220.00
2023-02-18T17:18:28.022Z,97219.00
2023-02-18T17:20:55.244Z,97238.00
2023-02-18T17:23:24.270Z,97239.00
2023-02-18T17:25:53.721Z,97243.00
2023-02-18T17:28:20.773Z,97252.00
2023-02-18T17:30:57.811Z,97245.00
2023-02-18T17:33:25.417Z,97242.00
2023-02-18T17:35:53.548Z,97249.00
2023-02-18T17:38:21.109Z,97244.00
2023-02-18T17:40:50.560Z,97254.00
2023-02-18T17:43:19.947Z,97258.00
2023-02-18T17:45:58.017Z,97269.00
2023-02-18T17:48:25.940Z,97269.00
2023-02-18T17:50:54.066Z,97278.00
2023-02-18T17:53:21.859Z,97269.00
2023-02-18T17:55:49.624Z,97274.00
2023-02-18T17:58:17.590Z,97272.00
2023-02-18T18:00:53.544Z,97275.00
2023-02-18T18:03:22.336Z,97288.00
2023-02-18T18:05:54.426Z,97280.00
2023-02-18T18:08:22.207Z,97273.00
2023-02-18T18:10:57.218Z,97281.00
2023-02-18T18:13:27.901Z,97280.00
2023-02-18T18:15:57.709Z,97273.00
2023-02-18T18:18:25.770Z,97272.00
2023-02-18T18:20:57.206Z,97274.00
2023-02-18T18:23:24.086Z,97290.00
2023-02-18T18:25:53.695Z,97282.00
2023-02-18T18:28:20.672Z,97283.00
2023-02-18T18:30:50.849Z,97290.00
2023-02-18T18:33:21.797Z,97284.00
2023-02-18T18:35:51.813Z,97285.00
2023-02-18T18:38:21.387Z,97280.00
2023-02-18T18:40:49.135Z,97290.00
2023-02-18T18:43:32.760Z,97293.00
2023-02-18T18:46:00.340Z,97290.00
2023-02-18T18:48:27.606Z,97300.00
2023-02-18T18:50:57.409Z,97290.00
2023-02-18T18:53:33.459Z,97303.00
2023-02-18T18:56:07.063Z,97287.00
2023-02-18T18:58:34.304Z,97298.00
2023-02-18T19:01:04.336Z,97297.00
2023-02-18T19:03:33.741Z,97299.00
2023-02-18T19:06:00.636Z,97299.00
2023-02-18T19:08:27.427Z,97295.00
2023-02-18T19:10:56.960Z,97297.00
2023-02-18T19:13:32.842Z,97304.00
2023-02-18T19:16:06.577Z,97298.00
2023-02-18T19:18:33.727Z,97302.00
2023-02-18T19:21:04.694Z,97301.00
2023-02-18T19:23:33.820Z,97310.00
2023-02-18T19:26:00.985Z,97308.00
2023-02-18T19:28:28.221Z,97319.00
2023-02-18T19:30:55.093Z,97316.00
2023-02-18T19:33:21.955Z,97311.00
2023-02-18T19:35:49.333Z,97315.00
2023-02-18T19:38:18.286Z,97314.00
2023-02-18T19:40:46.518Z,97306.00
2023-02-18T19:43:13.853Z,97322.00
2023-02-18T19:45:46.828Z,97306.00
2023-02-18T19:48:16.110Z,97317.00
2023-02-18T19:50:43.664Z,97316.00
2023-02-18T19:53:11.150Z,97323.00
2023-02-18T19:55:38.857Z,97322.00
2023-02-18T19:58:06.066Z,97325.00
2023-02-18T20:00:32.916Z,97322.00
2023-02-18T20:02:59.821Z,97323.00
2023-02-18T20:05:26.635Z,97318.00
2023-02-18T20:07:53.461Z,97321.00
2023-02-18T20:10:20.631Z,97324.00
2023-02-18T20:12:53.437Z,97342.00
2023-02-18T20:15:20.793Z,97340.00
2023-02-18T20:17:47.627Z,97348.00
2023-02-18T20:20:14.533Z,97344.00
2023-02-18T20:22:41.472Z,97335.00
2023-02-18T20:25:08.661Z,97342.00
2023-02-18T20:27:37.563Z,97354.00
2023-02-18T20:30:08.135Z,97352.00
2023-02-18T20:32:36.216Z,97343.00
2023-02-18T20:35:05.312Z,97345.00
2023-02-18T20:37:32.744Z,97343.00
2023-02-18T20:39:59.666Z,97339.00
2023-02-18T20:42:26.431Z,97340.00
2023-02-18T20:44:53.242Z,97341.00
2023-02-18T20:47:20.080Z,97343.00
2023-02-18T20:49:46.966Z,97344.00
2023-02-18T20:52:14.588Z,97345.00
2023-02-18T20:54:41.455Z,97343.00
2023-02-18T20:57:08.997Z,97352.00
2023-02-18T20:59:36.045Z,97348.00
2023-02-18T21:02:05.424Z,97341.00
2023-02-18T21:04:32.332Z,97344.00
2023-02-18T21:06:59.163Z,97350.00
2023-02-18T21:09:26.011Z,97340.00
2023-02-18T21:11:52.883Z,97345.00
2023-02-18T21:14:19.713Z,97346.00
2023-02-18T21:16:47.011Z,97352.00
2023-02-18T21:19:17.278Z,97342.00
2023-02-18T21:21:45.107Z,97342.00
2023-02-18T21:24:11.925Z,97336.00
2023-02-18T21:26:39.445Z,97328.00
2023-02-18T21:29:08.855Z,97327.00
2023-02-18T21:31:41.716Z,97341.00
2023-02-18T21:34:13.436Z,97343.00
2023-02-18T21:36:40.371Z,97344.00
2023-02-18T21:39:09.188Z,97342.00
2023-02-18T21:41:40.172Z,97340.00
2023-02-18T21:44:09.225Z,97342.00
2023-02-18T21:46:37.589Z,97334.00
2023-02-18T21:49:06.346Z,97327.00
2023-02-18T21:51:56.428Z,97332.00
2023-02-18T21:54:27.505Z,97329.00
2023-02-18T21:56:55.880Z,97326.00
2023-02-18T21:59:26.720Z,97319.00
2023-02-18T22:01:53.891Z,97334.00
2023-02-18T22:04:21.255Z,97329.00
2023-02-18T22:06:48.027Z,97326.00
2023-02-18T22:09:15.458Z,97339.00
2023-02-18T22:11:43.047Z,97337.00
2023-02-18T22:14:15.028Z,97328.00
2023-02-18T22:16:42.665Z,97325.00
2023-02-18T22:19:11.917Z,97334.00
2023-02-18T22:21:39.255Z,97319.00
2023-02-18T22:24:07.548Z,97335.00
2023-02-18T22:26:34.736Z,97328.00
2023-02-18T22:29:02.306Z,97330.00
2023-02-18T22:31:31.493Z,97325.00
2023-02-18T22:34:00.269Z,97327.00
2023-02-18T22:36:29.327Z,97314.00
2023-02-18T22:38:57.039Z,97318.00
2023-02-18T22:41:26.234Z,97321.00
2023-02-18T22:44:01.752Z,97321.00
2023-02-18T22:46:31.066Z,97323.00
2023-02-18T22:48:59.492Z,97321.00
2023-02-18T22:51:31.282Z,97319.00
2023-02-18T22:54:00.481Z,97318.00
2023-02-18T22:56:29.349Z,97313.00
2023-02-18T22:58:58.557Z,97321.00
2023-02-18T23:01:30.484Z,97321.00
2023-02-18T23:04:13.788Z,97304.00
2023-02-18T23:06:42.352Z,97296.00
2023-02-18T23:09:15.395Z,97308.00
2023-02-18T23:11:42.374Z,97305.00
2023-02-18T23:14:18.508Z,97318.00
2023-02-18T23:17:14.048Z,97307.00
2023-02-18T23:19:52.419Z,97296.00
2023-02-18T23:22:32.165Z,97294.00
2023-02-18T23:25:01.310Z,97304.00
2023-02-18T23:27:29.145Z,97296.00
2023-02-18T23:29:56.477Z,97296.00
2023-02-18T23:32:23.652Z,97290.00
2023-02-18T23:34:51.165Z,97285.00
2023-02-18T23:37:38.310Z,97290.00
2023-02-18T23:40:06.323Z,97287.00
2023-02-18T23:42:33.062Z,97293.00
2023-02-18T23:44:59.915Z,97289.00
2023-02-18T23:47:27.040Z,97292.00
2023-02-18T23:49:53.818Z,97285.00
2023-02-18T23:52:20.599Z,97287.00
2023-02-18T23:54:47.436Z,97291.00
2023-02-18T23:57:14.264Z,97286.00
2023-02-18T23:59:41.176Z,97279.00
